首页
METAR-TAF:

METAR-TAF

机场 :

Gillette, 怀俄明州, 美国

纬度: 44-20-22N, 经度: 105-32-31W, 海拔: 1330米

当前天气观测

该预报发布于1小时和6分钟前的23:53 UTC
风速12节,风向北转西北
温度 30°C
湿度 17%
气压 1017 hPa
能見度: 16.1公里
天空无云

METAR: KGCC 152353Z AUTO 33012KT 10SM CLR 30/02 A3002 RMK AO2 SLP110 T03000022 10322 20294 56013

时间: 18:59 (00:59 UTC)

预报

该预报发布于1小时和39分钟前的23:20 UTC
预报有效从16日的 00点(UTC)到 16日的 24点(UTC)
风速12节,风向北转西北
能見度: 10公里
散云层高于25000英尺
从 16日的 0300点(UTC)
风速5节,风向多变
能見度: 10公里
散云层高于25000英尺
从 16日的 1900点(UTC)
风速13节,风向
能見度: 10公里
少量云层高于25000英尺

TAF: KGCC 152320Z 1600/1624 33012KT P6SM SCT250 FM160300 VRB05KT P6SM SCT250 FM161900 01013KT P6SM FEW250

超过4000个机场的气象观测和天气预报(METAR&TAF报告)。

可查询的气象台以黄色和红色小点在地图上表示。

将鼠标移到小点上方,可查看气象台名称。

然后点击查看天气观测和预报。

如需切换地图:点击带黑十字的绿色按钮放大地图;点击带横线的绿色按钮缩小地图;或者点击绿色箭头查看邻近地区的地图。


METAR-TAF: